Jump to content


AMERICAN AIRLINES FLIGHT AA1188 FLOWN ON 03-08-2018 BY CAPTAIN JIM BOERMAN

Pilot StatsCaptain Jim Boerman (LDP136) • 4,945.1 total hours • 1,489 total flights [View Logbook]
FLIGHT DETAILS
StatusReceived and approved on 2018-03-08 at 12:03:11
Origin AirportLa Aurora Intl (MGGT) • Guatemala City, Guatemala (4,951 feet MSL)
Filed Flight PlanMGGT ALRES UW3 ASOKU UL655 NAU UJ34 MAM J25 SAT J131 FUZ KDFW
Destination AirportDallas-Ft Worth Intl (KDFW) • Dallas-Ft Worth, Texas, United States (607 feet MSL)
Alternate AirportSheppard AFB-Wichita Falls Mun (KSPS) • Wichita Falls, Texas, United States (1,019 feet MSL)
AirlineAmerican Airlines
AircraftBoeing 737-800 | Winglets (73H / B737-800)
FS Aircraft UsedBoeing 737-823 American Airlines N959NN
Cruising AltitudeFL340
Distance Flown1,156 nautical miles
Passengers Onboard138 passengers (85.19% full)
DEPARTURE DETAILS
Time Out07:45:04
Taxi Data151,160 lbs total with 25,560 lbs of fuel onboard
Takeoff Data07:55:56 (11 minutes after leaving gate/ramp) • 150,515 lbs total • 9° pitch at 160 knots
Departure METARMGGT 081300Z 02010KT CAVOK 14/10 Q1026 A3030
ARRIVAL DETAILS
Landing Data11:11:43 • 133,388 lbs total • 4° pitch doing 127 knots at a rate of -181.47 feet/minute with 7,471 lbs of fuel onboard
Time In11:18:27 (7 minutes after landing)
Ramp Weight133,071 lbs total
Total Fuel Used18,089 lbs
Total Block Time03:33:02 (3.6 hours) while 18 minutes were spent on the ground
Arrival METARKDFW 081653Z 15008KT 10SM SCT230 BKN300 14/M02 A3023 RMK AO2 SLP234 T01441022 $
MISCELLANEOUS DETAILS
LiveDISPATCH Version4.8.3.1
FS Version
FSUIPC Version5.12
OS VersionWindows 7 32-bit
Screen Resolution1920 x 1080
Pilot's CommentsNo Comments Reported
FLIGHT MAP